sensor_id;sensor_type;location;lat;lon;timestamp;temperature;humidity
19483;DHT22;9882;51.166;6.992;2023-03-30T00:01:44;12.90;99.90
19483;DHT22;9882;51.166;6.992;2023-03-30T00:04:12;13.00;99.90
19483;DHT22;9882;51.166;6.992;2023-03-30T00:06:41;13.10;99.90
19483;DHT22;9882;51.166;6.992;2023-03-30T00:09:11;13.00;99.90
19483;DHT22;9882;51.166;6.992;2023-03-30T00:11:40;13.00;99.90
19483;DHT22;9882;51.166;6.992;2023-03-30T00:14:09;13.00;99.90
19483;DHT22;9882;51.166;6.992;2023-03-30T00:16:38;12.90;99.90
19483;DHT22;9882;51.166;6.992;2023-03-30T00:19:07;13.00;99.90
19483;DHT22;9882;51.166;6.992;2023-03-30T00:21:35;13.00;99.90
19483;DHT22;9882;51.166;6.992;2023-03-30T00:24:04;13.10;99.90
19483;DHT22;9882;51.166;6.992;2023-03-30T00:26:34;12.90;99.90
19483;DHT22;9882;51.166;6.992;2023-03-30T00:29:03;13.10;99.90
19483;DHT22;9882;51.166;6.992;2023-03-30T00:31:32;13.10;99.90
19483;DHT22;9882;51.166;6.992;2023-03-30T00:34:00;13.00;99.90
19483;DHT22;9882;51.166;6.992;2023-03-30T00:36:29;12.90;99.90
19483;DHT22;9882;51.166;6.992;2023-03-30T00:39:04;13.00;99.90
19483;DHT22;9882;51.166;6.992;2023-03-30T00:41:36;13.00;99.90
19483;DHT22;9882;51.166;6.992;2023-03-30T00:44:05;13.00;99.90
19483;DHT22;9882;51.166;6.992;2023-03-30T00:46:34;13.10;99.90
19483;DHT22;9882;51.166;6.992;2023-03-30T00:49:05;13.00;99.90
19483;DHT22;9882;51.166;6.992;2023-03-30T00:51:37;13.10;99.90
19483;DHT22;9882;51.166;6.992;2023-03-30T00:54:11;13.00;99.90
19483;DHT22;9882;51.166;6.992;2023-03-30T00:56:42;13.00;99.90
19483;DHT22;9882;51.166;6.992;2023-03-30T00:59:11;12.90;99.90
19483;DHT22;9882;51.166;6.992;2023-03-30T01:01:40;12.90;99.90
19483;DHT22;9882;51.166;6.992;2023-03-30T01:04:11;12.90;99.90
19483;DHT22;9882;51.166;6.992;2023-03-30T01:06:40;13.00;99.90
19483;DHT22;9882;51.166;6.992;2023-03-30T01:09:09;13.00;99.90
19483;DHT22;9882;51.166;6.992;2023-03-30T01:11:38;13.00;99.90
19483;DHT22;9882;51.166;6.992;2023-03-30T01:14:11;13.00;99.90
19483;DHT22;9882;51.166;6.992;2023-03-30T01:16:45;13.00;99.90
19483;DHT22;9882;51.166;6.992;2023-03-30T01:19:53;13.00;99.90
19483;DHT22;9882;51.166;6.992;2023-03-30T01:26:03;13.10;99.90
19483;DHT22;9882;51.166;6.992;2023-03-30T01:28:42;13.20;99.90
19483;DHT22;9882;51.166;6.992;2023-03-30T01:34:48;13.10;99.90
19483;DHT22;9882;51.166;6.992;2023-03-30T01:40:26;13.20;99.90
19483;DHT22;9882;51.166;6.992;2023-03-30T01:43:02;13.10;99.90
19483;DHT22;9882;51.166;6.992;2023-03-30T01:45:41;13.20;99.90
19483;DHT22;9882;51.166;6.992;2023-03-30T01:48:14;13.30;99.90
19483;DHT22;9882;51.166;6.992;2023-03-30T01:50:48;13.50;99.90
19483;DHT22;9882;51.166;6.992;2023-03-30T01:53:22;13.20;99.90
19483;DHT22;9882;51.166;6.992;2023-03-30T01:55:56;13.30;99.90
19483;DHT22;9882;51.166;6.992;2023-03-30T01:58:30;13.50;99.90
19483;DHT22;9882;51.166;6.992;2023-03-30T02:01:01;13.30;99.90
19483;DHT22;9882;51.166;6.992;2023-03-30T02:03:34;13.40;99.90
19483;DHT22;9882;51.166;6.992;2023-03-30T02:06:07;13.30;99.90
19483;DHT22;9882;51.166;6.992;2023-03-30T02:08:39;13.40;99.90
19483;DHT22;9882;51.166;6.992;2023-03-30T02:11:09;13.50;99.90
19483;DHT22;9882;51.166;6.992;2023-03-30T02:13:40;13.30;99.90
19483;DHT22;9882;51.166;6.992;2023-03-30T02:16:13;13.30;99.90
19483;DHT22;9882;51.166;6.992;2023-03-30T02:18:44;13.30;99.90
19483;DHT22;9882;51.166;6.992;2023-03-30T02:21:13;13.30;99.90
19483;DHT22;9882;51.166;6.992;2023-03-30T02:23:44;13.30;99.90
19483;DHT22;9882;51.166;6.992;2023-03-30T02:26:14;13.40;99.90
19483;DHT22;9882;51.166;6.992;2023-03-30T02:28:44;13.30;99.90
19483;DHT22;9882;51.166;6.992;2023-03-30T02:31:14;13.20;99.90
19483;DHT22;9882;51.166;6.992;2023-03-30T02:33:55;13.40;99.90
19483;DHT22;9882;51.166;6.992;2023-03-30T02:36:40;13.30;99.90
19483;DHT22;9882;51.166;6.992;2023-03-30T02:39:26;13.30;99.90
19483;DHT22;9882;51.166;6.992;2023-03-30T02:45:09;13.40;99.90
19483;DHT22;9882;51.166;6.992;2023-03-30T02:47:47;13.30;99.90
19483;DHT22;9882;51.166;6.992;2023-03-30T02:50:23;13.30;99.90
19483;DHT22;9882;51.166;6.992;2023-03-30T02:52:56;13.30;99.90
19483;DHT22;9882;51.166;6.992;2023-03-30T02:55:33;13.20;99.90
19483;DHT22;9882;51.166;6.992;2023-03-30T02:58:42;13.20;99.90
19483;DHT22;9882;51.166;6.992;2023-03-30T03:01:20;13.30;99.90
19483;DHT22;9882;51.166;6.992;2023-03-30T03:03:58;13.30;99.90
19483;DHT22;9882;51.166;6.992;2023-03-30T03:06:33;13.40;99.90
19483;DHT22;9882;51.166;6.992;2023-03-30T03:09:04;13.40;99.90
19483;DHT22;9882;51.166;6.992;2023-03-30T03:11:33;13.40;99.90
19483;DHT22;9882;51.166;6.992;2023-03-30T03:14:03;13.30;99.90
19483;DHT22;9882;51.166;6.992;2023-03-30T03:16:33;13.50;99.90
19483;DHT22;9882;51.166;6.992;2023-03-30T03:19:09;13.60;99.90
19483;DHT22;9882;51.166;6.992;2023-03-30T03:21:39;13.50;99.90
19483;DHT22;9882;51.166;6.992;2023-03-30T03:24:08;13.30;99.90
19483;DHT22;9882;51.166;6.992;2023-03-30T03:26:58;13.40;99.90
19483;DHT22;9882;51.166;6.992;2023-03-30T03:29:31;13.40;99.90
19483;DHT22;9882;51.166;6.992;2023-03-30T03:32:00;13.50;99.90
19483;DHT22;9882;51.166;6.992;2023-03-30T03:34:36;13.60;99.90
19483;DHT22;9882;51.166;6.992;2023-03-30T03:37:05;13.70;99.90
19483;DHT22;9882;51.166;6.992;2023-03-30T03:39:34;13.50;99.90
19483;DHT22;9882;51.166;6.992;2023-03-30T03:42:07;13.60;99.90
19483;DHT22;9882;51.166;6.992;2023-03-30T03:44:46;13.60;99.90
19483;DHT22;9882;51.166;6.992;2023-03-30T03:47:14;13.50;99.90
19483;DHT22;9882;51.166;6.992;2023-03-30T03:49:43;13.40;99.90
19483;DHT22;9882;51.166;6.992;2023-03-30T03:52:12;13.50;99.90
19483;DHT22;9882;51.166;6.992;2023-03-30T03:54:40;13.50;99.90
19483;DHT22;9882;51.166;6.992;2023-03-30T03:57:09;13.40;99.90
19483;DHT22;9882;51.166;6.992;2023-03-30T03:59:37;13.50;99.90
19483;DHT22;9882;51.166;6.992;2023-03-30T04:02:07;13.50;99.90
19483;DHT22;9882;51.166;6.992;2023-03-30T04:04:36;13.50;99.90
19483;DHT22;9882;51.166;6.992;2023-03-30T04:07:04;13.60;99.90
19483;DHT22;9882;51.166;6.992;2023-03-30T04:09:33;13.50;99.90
19483;DHT22;9882;51.166;6.992;2023-03-30T04:12:28;13.50;99.90
19483;DHT22;9882;51.166;6.992;2023-03-30T04:15:06;13.60;99.90
19483;DHT22;9882;51.166;6.992;2023-03-30T04:17:55;13.60;99.90
19483;DHT22;9882;51.166;6.992;2023-03-30T04:20:48;13.70;99.90
19483;DHT22;9882;51.166;6.992;2023-03-30T04:23:35;13.70;99.90
19483;DHT22;9882;51.166;6.992;2023-03-30T04:26:27;13.50;99.90
19483;DHT22;9882;51.166;6.992;2023-03-30T04:29:19;13.60;99.90
19483;DHT22;9882;51.166;6.992;2023-03-30T04:32:06;13.70;99.90
19483;DHT22;9882;51.166;6.992;2023-03-30T04:35:02;13.70;99.90
19483;DHT22;9882;51.166;6.992;2023-03-30T04:37:46;13.60;99.90
19483;DHT22;9882;51.166;6.992;2023-03-30T04:40:36;13.80;99.90
19483;DHT22;9882;51.166;6.992;2023-03-30T04:43:13;13.80;99.90
19483;DHT22;9882;51.166;6.992;2023-03-30T04:46:05;13.90;99.90
19483;DHT22;9882;51.166;6.992;2023-03-30T04:48:51;13.90;99.90
19483;DHT22;9882;51.166;6.992;2023-03-30T04:51:37;14.10;99.90
19483;DHT22;9882;51.166;6.992;2023-03-30T04:54:40;14.30;99.90
19483;DHT22;9882;51.166;6.992;2023-03-30T04:57:28;14.30;99.90
19483;DHT22;9882;51.166;6.992;2023-03-30T05:00:22;14.40;99.90
19483;DHT22;9882;51.166;6.992;2023-03-30T05:03:17;14.40;99.90
19483;DHT22;9882;51.166;6.992;2023-03-30T05:06:18;14.30;99.90
19483;DHT22;9882;51.166;6.992;2023-03-30T05:09:09;14.50;99.90
19483;DHT22;9882;51.166;6.992;2023-03-30T05:11:56;14.50;99.90
19483;DHT22;9882;51.166;6.992;2023-03-30T05:14:47;14.40;99.90
19483;DHT22;9882;51.166;6.992;2023-03-30T05:17:31;14.50;99.90
19483;DHT22;9882;51.166;6.992;2023-03-30T05:20:16;14.40;99.90
19483;DHT22;9882;51.166;6.992;2023-03-30T05:23:01;14.30;99.90
19483;DHT22;9882;51.166;6.992;2023-03-30T05:25:50;14.30;99.90
19483;DHT22;9882;51.166;6.992;2023-03-30T05:28:33;14.40;99.90
19483;DHT22;9882;51.166;6.992;2023-03-30T05:31:19;14.40;99.90
19483;DHT22;9882;51.166;6.992;2023-03-30T05:34:02;14.30;99.90
19483;DHT22;9882;51.166;6.992;2023-03-30T05:36:51;14.30;99.90
19483;DHT22;9882;51.166;6.992;2023-03-30T05:39:35;14.40;99.90
19483;DHT22;9882;51.166;6.992;2023-03-30T05:42:18;14.40;99.90
19483;DHT22;9882;51.166;6.992;2023-03-30T05:45:13;14.40;99.90
19483;DHT22;9882;51.166;6.992;2023-03-30T05:47:59;14.40;99.90
19483;DHT22;9882;51.166;6.992;2023-03-30T05:50:46;14.40;99.90
19483;DHT22;9882;51.166;6.992;2023-03-30T05:53:25;14.30;99.90
19483;DHT22;9882;51.166;6.992;2023-03-30T05:56:04;14.30;99.90
19483;DHT22;9882;51.166;6.992;2023-03-30T05:58:46;14.30;99.90
19483;DHT22;9882;51.166;6.992;2023-03-30T06:01:35;14.30;99.90
19483;DHT22;9882;51.166;6.992;2023-03-30T06:04:04;14.30;99.90
19483;DHT22;9882;51.166;6.992;2023-03-30T06:06:34;14.30;99.90
19483;DHT22;9882;51.166;6.992;2023-03-30T06:09:03;14.30;99.90
19483;DHT22;9882;51.166;6.992;2023-03-30T06:11:34;14.30;99.90
19483;DHT22;9882;51.166;6.992;2023-03-30T06:14:13;14.20;99.90
19483;DHT22;9882;51.166;6.992;2023-03-30T06:16:48;14.20;99.90
19483;DHT22;9882;51.166;6.992;2023-03-30T06:19:17;14.10;99.90
19483;DHT22;9882;51.166;6.992;2023-03-30T06:21:45;14.10;99.90
19483;DHT22;9882;51.166;6.992;2023-03-30T06:24:41;14.00;99.90
19483;DHT22;9882;51.166;6.992;2023-03-30T06:27:09;13.90;99.90
19483;DHT22;9882;51.166;6.992;2023-03-30T06:29:39;14.00;99.90
19483;DHT22;9882;51.166;6.992;2023-03-30T06:32:08;14.00;99.90
19483;DHT22;9882;51.166;6.992;2023-03-30T06:34:55;14.10;99.90
19483;DHT22;9882;51.166;6.992;2023-03-30T06:37:25;14.10;99.90
19483;DHT22;9882;51.166;6.992;2023-03-30T06:39:54;14.10;99.90
19483;DHT22;9882;51.166;6.992;2023-03-30T06:42:25;13.90;99.90
19483;DHT22;9882;51.166;6.992;2023-03-30T06:45:13;13.90;99.90
19483;DHT22;9882;51.166;6.992;2023-03-30T06:47:42;14.10;99.90
19483;DHT22;9882;51.166;6.992;2023-03-30T06:50:11;14.10;99.90
19483;DHT22;9882;51.166;6.992;2023-03-30T06:52:49;14.00;99.90
19483;DHT22;9882;51.166;6.992;2023-03-30T06:55:19;14.20;99.90
19483;DHT22;9882;51.166;6.992;2023-03-30T06:57:48;14.30;99.90
19483;DHT22;9882;51.166;6.992;2023-03-30T07:00:20;14.30;99.90
19483;DHT22;9882;51.166;6.992;2023-03-30T07:03:07;14.40;99.90
19483;DHT22;9882;51.166;6.992;2023-03-30T07:05:48;14.50;99.90
19483;DHT22;9882;51.166;6.992;2023-03-30T07:08:27;14.40;99.90
19483;DHT22;9882;51.166;6.992;2023-03-30T07:10:56;14.50;99.90
19483;DHT22;9882;51.166;6.992;2023-03-30T07:13:28;14.50;99.90
19483;DHT22;9882;51.166;6.992;2023-03-30T07:15:58;14.50;99.90
19483;DHT22;9882;51.166;6.992;2023-03-30T07:18:26;14.40;99.90
19483;DHT22;9882;51.166;6.992;2023-03-30T07:20:56;14.30;99.90
19483;DHT22;9882;51.166;6.992;2023-03-30T07:23:28;14.40;99.90
19483;DHT22;9882;51.166;6.992;2023-03-30T07:25:57;14.50;99.90
19483;DHT22;9882;51.166;6.992;2023-03-30T07:28:45;14.40;99.90
19483;DHT22;9882;51.166;6.992;2023-03-30T07:31:16;14.50;99.90
19483;DHT22;9882;51.166;6.992;2023-03-30T07:33:46;14.60;99.90
19483;DHT22;9882;51.166;6.992;2023-03-30T07:36:19;14.50;99.90
19483;DHT22;9882;51.166;6.992;2023-03-30T07:38:47;14.60;99.90
19483;DHT22;9882;51.166;6.992;2023-03-30T07:41:16;14.40;99.90
19483;DHT22;9882;51.166;6.992;2023-03-30T07:43:49;14.50;99.90
19483;DHT22;9882;51.166;6.992;2023-03-30T07:46:19;14.40;99.90
19483;DHT22;9882;51.166;6.992;2023-03-30T07:48:51;14.30;99.90
19483;DHT22;9882;51.166;6.992;2023-03-30T07:51:21;14.30;99.90
19483;DHT22;9882;51.166;6.992;2023-03-30T07:54:00;14.40;99.90
19483;DHT22;9882;51.166;6.992;2023-03-30T07:56:39;14.30;99.90
19483;DHT22;9882;51.166;6.992;2023-03-30T07:59:08;14.30;99.90
19483;DHT22;9882;51.166;6.992;2023-03-30T08:01:42;14.40;99.90
19483;DHT22;9882;51.166;6.992;2023-03-30T08:04:34;14.40;99.90
19483;DHT22;9882;51.166;6.992;2023-03-30T08:07:03;14.40;99.90
19483;DHT22;9882;51.166;6.992;2023-03-30T08:09:31;14.30;99.90
19483;DHT22;9882;51.166;6.992;2023-03-30T08:12:00;14.40;99.90
19483;DHT22;9882;51.166;6.992;2023-03-30T08:14:28;12.80;99.90
19483;DHT22;9882;51.166;6.992;2023-03-30T08:16:58;11.70;99.90
19483;DHT22;9882;51.166;6.992;2023-03-30T08:19:26;11.80;99.90
19483;DHT22;9882;51.166;6.992;2023-03-30T08:21:55;11.70;99.90
19483;DHT22;9882;51.166;6.992;2023-03-30T08:24:24;11.70;99.90
19483;DHT22;9882;51.166;6.992;2023-03-30T08:26:52;11.70;99.90
19483;DHT22;9882;51.166;6.992;2023-03-30T08:29:21;11.60;99.90
19483;DHT22;9882;51.166;6.992;2023-03-30T08:31:49;11.60;99.90
19483;DHT22;9882;51.166;6.992;2023-03-30T08:34:20;11.60;99.90
19483;DHT22;9882;51.166;6.992;2023-03-30T08:36:48;11.70;99.90
19483;DHT22;9882;51.166;6.992;2023-03-30T08:39:17;11.80;99.90
19483;DHT22;9882;51.166;6.992;2023-03-30T08:42:24;11.80;99.90
19483;DHT22;9882;51.166;6.992;2023-03-30T08:44:57;11.90;99.90
19483;DHT22;9882;51.166;6.992;2023-03-30T08:47:33;11.90;99.90
19483;DHT22;9882;51.166;6.992;2023-03-30T08:50:07;11.80;99.90
19483;DHT22;9882;51.166;6.992;2023-03-30T08:52:38;12.00;99.90
19483;DHT22;9882;51.166;6.992;2023-03-30T08:55:18;12.10;99.90
19483;DHT22;9882;51.166;6.992;2023-03-30T08:57:50;12.10;99.90
19483;DHT22;9882;51.166;6.992;2023-03-30T09:00:28;12.10;99.90
19483;DHT22;9882;51.166;6.992;2023-03-30T09:03:16;12.20;99.90
19483;DHT22;9882;51.166;6.992;2023-03-30T09:05:51;12.20;99.90
19483;DHT22;9882;51.166;6.992;2023-03-30T09:08:22;12.30;99.90
19483;DHT22;9882;51.166;6.992;2023-03-30T09:10:57;12.40;99.90
19483;DHT22;9882;51.166;6.992;2023-03-30T09:13:29;12.50;99.90
19483;DHT22;9882;51.166;6.992;2023-03-30T09:16:03;12.60;99.90
19483;DHT22;9882;51.166;6.992;2023-03-30T09:18:38;12.90;99.90
19483;DHT22;9882;51.166;6.992;2023-03-30T09:21:11;13.10;99.90
19483;DHT22;9882;51.166;6.992;2023-03-30T09:23:40;13.40;99.90
19483;DHT22;9882;51.166;6.992;2023-03-30T09:26:17;13.20;99.90
19483;DHT22;9882;51.166;6.992;2023-03-30T09:28:52;13.20;99.90
19483;DHT22;9882;51.166;6.992;2023-03-30T09:31:26;13.10;99.90
19483;DHT22;9882;51.166;6.992;2023-03-30T09:33:59;12.60;99.90
19483;DHT22;9882;51.166;6.992;2023-03-30T09:36:35;12.10;99.90
19483;DHT22;9882;51.166;6.992;2023-03-30T09:39:09;11.60;99.90
19483;DHT22;9882;51.166;6.992;2023-03-30T09:41:48;11.30;99.90
19483;DHT22;9882;51.166;6.992;2023-03-30T09:44:24;11.10;99.90
19483;DHT22;9882;51.166;6.992;2023-03-30T09:46:57;11.00;99.90
19483;DHT22;9882;51.166;6.992;2023-03-30T09:49:27;10.90;99.90
19483;DHT22;9882;51.166;6.992;2023-03-30T09:52:03;10.90;99.90
19483;DHT22;9882;51.166;6.992;2023-03-30T09:54:36;11.00;99.90
19483;DHT22;9882;51.166;6.992;2023-03-30T09:57:05;11.00;99.90
19483;DHT22;9882;51.166;6.992;2023-03-30T09:59:49;11.00;99.90
19483;DHT22;9882;51.166;6.992;2023-03-30T10:02:19;11.00;99.90
19483;DHT22;9882;51.166;6.992;2023-03-30T10:04:57;11.00;99.90
19483;DHT22;9882;51.166;6.992;2023-03-30T10:07:32;10.90;99.90
19483;DHT22;9882;51.166;6.992;2023-03-30T10:10:13;11.00;99.90
19483;DHT22;9882;51.166;6.992;2023-03-30T10:12:42;11.10;99.90
19483;DHT22;9882;51.166;6.992;2023-03-30T10:15:15;11.10;99.90
19483;DHT22;9882;51.166;6.992;2023-03-30T10:17:45;11.10;99.90
19483;DHT22;9882;51.166;6.992;2023-03-30T10:20:24;11.00;99.90
19483;DHT22;9882;51.166;6.992;2023-03-30T10:22:59;11.20;99.90
19483;DHT22;9882;51.166;6.992;2023-03-30T10:25:32;11.20;99.90
19483;DHT22;9882;51.166;6.992;2023-03-30T10:28:03;11.20;99.90
19483;DHT22;9882;51.166;6.992;2023-03-30T10:30:32;11.20;99.90
19483;DHT22;9882;51.166;6.992;2023-03-30T10:33:02;11.20;99.90
19483;DHT22;9882;51.166;6.992;2023-03-30T10:35:33;11.40;99.90
19483;DHT22;9882;51.166;6.992;2023-03-30T10:38:06;11.50;99.90
19483;DHT22;9882;51.166;6.992;2023-03-30T10:40:39;11.40;99.90
19483;DHT22;9882;51.166;6.992;2023-03-30T10:43:13;11.50;99.90
19483;DHT22;9882;51.166;6.992;2023-03-30T10:45:44;11.70;99.90
19483;DHT22;9882;51.166;6.992;2023-03-30T10:48:26;11.60;99.90
19483;DHT22;9882;51.166;6.992;2023-03-30T10:51:06;11.80;99.90
19483;DHT22;9882;51.166;6.992;2023-03-30T10:53:46;11.70;99.90
19483;DHT22;9882;51.166;6.992;2023-03-30T10:56:26;11.70;99.90
19483;DHT22;9882;51.166;6.992;2023-03-30T10:59:23;11.70;99.90
19483;DHT22;9882;51.166;6.992;2023-03-30T11:05:01;11.80;99.90
19483;DHT22;9882;51.166;6.992;2023-03-30T11:07:34;12.00;99.90
19483;DHT22;9882;51.166;6.992;2023-03-30T11:10:10;12.10;99.90
19483;DHT22;9882;51.166;6.992;2023-03-30T11:12:44;12.20;99.90
19483;DHT22;9882;51.166;6.992;2023-03-30T11:15:17;12.30;99.90
19483;DHT22;9882;51.166;6.992;2023-03-30T11:17:54;12.50;99.90
19483;DHT22;9882;51.166;6.992;2023-03-30T11:20:26;12.60;99.90
19483;DHT22;9882;51.166;6.992;2023-03-30T11:23:05;12.70;99.90
19483;DHT22;9882;51.166;6.992;2023-03-30T11:25:43;12.80;99.90
19483;DHT22;9882;51.166;6.992;2023-03-30T11:28:20;13.00;99.90
19483;DHT22;9882;51.166;6.992;2023-03-30T11:30:53;13.10;99.90
19483;DHT22;9882;51.166;6.992;2023-03-30T11:33:27;13.30;99.90
19483;DHT22;9882;51.166;6.992;2023-03-30T11:36:02;13.50;99.90
19483;DHT22;9882;51.166;6.992;2023-03-30T11:38:44;13.60;99.90
19483;DHT22;9882;51.166;6.992;2023-03-30T11:41:20;13.60;99.90
19483;DHT22;9882;51.166;6.992;2023-03-30T11:43:50;13.60;99.90
19483;DHT22;9882;51.166;6.992;2023-03-30T11:46:27;13.60;99.90
19483;DHT22;9882;51.166;6.992;2023-03-30T11:49:09;13.70;99.90
19483;DHT22;9882;51.166;6.992;2023-03-30T11:51:48;13.90;99.90
19483;DHT22;9882;51.166;6.992;2023-03-30T11:54:50;14.00;99.90
19483;DHT22;9882;51.166;6.992;2023-03-30T11:57:34;14.30;99.90
19483;DHT22;9882;51.166;6.992;2023-03-30T12:00:21;14.50;99.90
19483;DHT22;9882;51.166;6.992;2023-03-30T12:03:00;14.20;99.90
19483;DHT22;9882;51.166;6.992;2023-03-30T12:05:36;14.30;99.90
19483;DHT22;9882;51.166;6.992;2023-03-30T12:08:24;14.20;99.90
19483;DHT22;9882;51.166;6.992;2023-03-30T12:11:03;14.20;99.90
19483;DHT22;9882;51.166;6.992;2023-03-30T12:13:34;13.90;99.90
19483;DHT22;9882;51.166;6.992;2023-03-30T12:16:14;13.80;99.90
19483;DHT22;9882;51.166;6.992;2023-03-30T12:18:51;13.70;99.90
19483;DHT22;9882;51.166;6.992;2023-03-30T12:21:29;13.60;99.90
19483;DHT22;9882;51.166;6.992;2023-03-30T12:24:08;13.40;99.90
19483;DHT22;9882;51.166;6.992;2023-03-30T12:26:38;12.60;99.90
19483;DHT22;9882;51.166;6.992;2023-03-30T12:29:11;12.40;99.90
19483;DHT22;9882;51.166;6.992;2023-03-30T12:32:05;12.10;99.90
19483;DHT22;9882;51.166;6.992;2023-03-30T12:34:36;11.90;99.90
19483;DHT22;9882;51.166;6.992;2023-03-30T12:37:11;12.20;99.90
19483;DHT22;9882;51.166;6.992;2023-03-30T12:39:43;12.40;99.90
19483;DHT22;9882;51.166;6.992;2023-03-30T12:42:20;12.60;99.90
19483;DHT22;9882;51.166;6.992;2023-03-30T12:45:10;12.80;99.90
19483;DHT22;9882;51.166;6.992;2023-03-30T12:50:46;13.00;99.90
19483;DHT22;9882;51.166;6.992;2023-03-30T12:53:58;12.90;99.90
19483;DHT22;9882;51.166;6.992;2023-03-30T12:56:36;13.30;99.90
19483;DHT22;9882;51.166;6.992;2023-03-30T12:59:24;13.00;99.90
19483;DHT22;9882;51.166;6.992;2023-03-30T13:04:54;12.80;99.90
19483;DHT22;9882;51.166;6.992;2023-03-30T13:07:27;12.80;99.90
19483;DHT22;9882;51.166;6.992;2023-03-30T13:09:59;12.90;99.90
19483;DHT22;9882;51.166;6.992;2023-03-30T13:12:34;13.10;99.90
19483;DHT22;9882;51.166;6.992;2023-03-30T13:15:30;13.00;99.90
19483;DHT22;9882;51.166;6.992;2023-03-30T13:18:02;13.00;99.90
19483;DHT22;9882;51.166;6.992;2023-03-30T13:20:32;13.10;99.90
19483;DHT22;9882;51.166;6.992;2023-03-30T13:23:24;13.30;99.90
19483;DHT22;9882;51.166;6.992;2023-03-30T13:26:03;13.60;99.90
19483;DHT22;9882;51.166;6.992;2023-03-30T13:28:53;13.60;99.90
19483;DHT22;9882;51.166;6.992;2023-03-30T13:31:46;13.60;99.90
19483;DHT22;9882;51.166;6.992;2023-03-30T13:34:30;13.60;99.90
19483;DHT22;9882;51.166;6.992;2023-03-30T13:37:11;13.50;99.90
19483;DHT22;9882;51.166;6.992;2023-03-30T13:39:46;13.60;99.90
19483;DHT22;9882;51.166;6.992;2023-03-30T13:45:20;13.40;99.90
19483;DHT22;9882;51.166;6.992;2023-03-30T13:47:59;13.50;99.90
19483;DHT22;9882;51.166;6.992;2023-03-30T13:50:33;13.60;99.90
19483;DHT22;9882;51.166;6.992;2023-03-30T13:53:07;13.60;99.90
19483;DHT22;9882;51.166;6.992;2023-03-30T13:55:38;13.50;99.90
19483;DHT22;9882;51.166;6.992;2023-03-30T13:58:11;13.50;99.90
19483;DHT22;9882;51.166;6.992;2023-03-30T14:00:45;13.70;99.90
19483;DHT22;9882;51.166;6.992;2023-03-30T14:03:27;14.60;99.90
19483;DHT22;9882;51.166;6.992;2023-03-30T14:06:02;15.20;99.90
19483;DHT22;9882;51.166;6.992;2023-03-30T14:08:34;15.00;99.90
19483;DHT22;9882;51.166;6.992;2023-03-30T14:11:06;14.40;99.90
19483;DHT22;9882;51.166;6.992;2023-03-30T14:13:36;14.50;99.90
19483;DHT22;9882;51.166;6.992;2023-03-30T14:16:06;15.00;99.90
19483;DHT22;9882;51.166;6.992;2023-03-30T14:18:34;15.40;99.90
19483;DHT22;9882;51.166;6.992;2023-03-30T14:21:09;16.40;99.90
19483;DHT22;9882;51.166;6.992;2023-03-30T14:23:44;16.90;99.90
19483;DHT22;9882;51.166;6.992;2023-03-30T14:26:16;16.10;99.90
19483;DHT22;9882;51.166;6.992;2023-03-30T14:28:45;15.90;99.90
19483;DHT22;9882;51.166;6.992;2023-03-30T14:31:15;15.80;99.90
19483;DHT22;9882;51.166;6.992;2023-03-30T14:33:45;15.10;99.90
19483;DHT22;9882;51.166;6.992;2023-03-30T14:36:16;14.90;99.90
19483;DHT22;9882;51.166;6.992;2023-03-30T14:38:48;14.80;99.90
19483;DHT22;9882;51.166;6.992;2023-03-30T14:41:20;14.80;99.90
19483;DHT22;9882;51.166;6.992;2023-03-30T14:43:52;14.50;99.90
19483;DHT22;9882;51.166;6.992;2023-03-30T14:46:23;14.10;99.90
19483;DHT22;9882;51.166;6.992;2023-03-30T14:48:52;14.10;99.90
19483;DHT22;9882;51.166;6.992;2023-03-30T14:51:24;15.00;99.90
19483;DHT22;9882;51.166;6.992;2023-03-30T14:53:54;14.60;99.90
19483;DHT22;9882;51.166;6.992;2023-03-30T14:56:23;14.20;99.90
19483;DHT22;9882;51.166;6.992;2023-03-30T14:58:54;14.30;99.90
19483;DHT22;9882;51.166;6.992;2023-03-30T15:01:26;14.30;99.90
19483;DHT22;9882;51.166;6.992;2023-03-30T15:03:58;15.40;99.90
19483;DHT22;9882;51.166;6.992;2023-03-30T15:06:30;15.80;99.90
19483;DHT22;9882;51.166;6.992;2023-03-30T15:09:01;15.40;99.90
19483;DHT22;9882;51.166;6.992;2023-03-30T15:11:31;15.80;99.90
19483;DHT22;9882;51.166;6.992;2023-03-30T15:14:03;16.30;99.90
19483;DHT22;9882;51.166;6.992;2023-03-30T15:16:35;17.20;99.90
19483;DHT22;9882;51.166;6.992;2023-03-30T15:19:09;16.60;99.90
19483;DHT22;9882;51.166;6.992;2023-03-30T15:21:39;16.00;99.90
19483;DHT22;9882;51.166;6.992;2023-03-30T15:24:12;16.60;99.90
19483;DHT22;9882;51.166;6.992;2023-03-30T15:26:45;16.30;99.90
19483;DHT22;9882;51.166;6.992;2023-03-30T15:29:15;15.90;99.90
19483;DHT22;9882;51.166;6.992;2023-03-30T15:31:45;15.40;99.90
19483;DHT22;9882;51.166;6.992;2023-03-30T15:34:25;15.40;99.90
19483;DHT22;9882;51.166;6.992;2023-03-30T15:36:55;15.20;99.90
19483;DHT22;9882;51.166;6.992;2023-03-30T15:39:25;15.00;99.90
19483;DHT22;9882;51.166;6.992;2023-03-30T15:42:01;14.80;99.90
19483;DHT22;9882;51.166;6.992;2023-03-30T15:44:33;14.60;99.90
19483;DHT22;9882;51.166;6.992;2023-03-30T15:47:05;13.90;99.90
19483;DHT22;9882;51.166;6.992;2023-03-30T15:49:39;13.30;99.90
19483;DHT22;9882;51.166;6.992;2023-03-30T15:52:12;13.00;99.90
19483;DHT22;9882;51.166;6.992;2023-03-30T15:54:47;13.10;99.90
19483;DHT22;9882;51.166;6.992;2023-03-30T15:57:19;13.10;99.90
19483;DHT22;9882;51.166;6.992;2023-03-30T15:59:51;13.10;99.90
19483;DHT22;9882;51.166;6.992;2023-03-30T16:02:22;13.00;99.90
19483;DHT22;9882;51.166;6.992;2023-03-30T16:04:51;12.70;99.90
19483;DHT22;9882;51.166;6.992;2023-03-30T16:07:24;12.70;99.90
19483;DHT22;9882;51.166;6.992;2023-03-30T16:09:52;12.90;99.90
19483;DHT22;9882;51.166;6.992;2023-03-30T16:12:24;12.70;99.90
19483;DHT22;9882;51.166;6.992;2023-03-30T16:14:53;13.00;99.90
19483;DHT22;9882;51.166;6.992;2023-03-30T16:17:22;12.90;99.90
19483;DHT22;9882;51.166;6.992;2023-03-30T16:19:50;13.20;99.90
19483;DHT22;9882;51.166;6.992;2023-03-30T16:22:19;12.90;99.90
19483;DHT22;9882;51.166;6.992;2023-03-30T16:24:48;13.10;99.90
19483;DHT22;9882;51.166;6.992;2023-03-30T16:27:17;13.70;99.90
19483;DHT22;9882;51.166;6.992;2023-03-30T16:29:45;13.90;99.90
19483;DHT22;9882;51.166;6.992;2023-03-30T16:32:14;13.90;99.90
19483;DHT22;9882;51.166;6.992;2023-03-30T16:34:42;13.70;99.90
19483;DHT22;9882;51.166;6.992;2023-03-30T16:37:16;13.70;99.90
19483;DHT22;9882;51.166;6.992;2023-03-30T16:39:45;13.60;99.90
19483;DHT22;9882;51.166;6.992;2023-03-30T16:42:15;13.40;99.90
19483;DHT22;9882;51.166;6.992;2023-03-30T16:44:44;13.60;99.90
19483;DHT22;9882;51.166;6.992;2023-03-30T16:47:12;13.80;99.90
19483;DHT22;9882;51.166;6.992;2023-03-30T16:49:41;13.30;99.90
19483;DHT22;9882;51.166;6.992;2023-03-30T16:52:10;13.40;99.90
19483;DHT22;9882;51.166;6.992;2023-03-30T16:54:38;13.40;99.90
19483;DHT22;9882;51.166;6.992;2023-03-30T16:57:08;13.10;99.90
19483;DHT22;9882;51.166;6.992;2023-03-30T16:59:38;13.30;99.90
19483;DHT22;9882;51.166;6.992;2023-03-30T17:02:10;13.30;99.90